Latest Conditions
At L.F.Wade Int. Airport
Recorded at 4:55 pm
Mostly Cloudy
Temp.: 
28°C/83°F
Humidity: 
78%
Wind: 
SSW 11KT
or 13mph
UV Index: 
4
Island Observations
 
Observations
Wednesday, June 26, 2019

Observations are in local time and taken at least once an hour, or upon the start and end of specified events such as showers and thunderstorms.

Time Sky / Weather Wind Speed/Gusts Temp. R.H. Pressure
     knots (mph)  °C (°F)  %  mb / "Hg
 16:55 Mostly Cloudy  SSW 11/0 (13/0) 28(83) 78 1019 / 30.09
 15:55 Mostly Cloudy  S 9/0 (10/0) 28(82) 82 1019 / 30.10
 14:55 Mostly Cloudy Showers S 9/0 (10/0) 28(82) 81 1020 / 30.11
 13:55 Mostly Cloudy  SSE 10/0 (12/0) 28(82) 83 1020 / 30.11
 12:55 Mostly Cloudy  S 9/0 (10/0) 28(82) 82 1020 / 30.12
 11:55 Mostly Cloudy Showers SSE 9/0 (10/0) 27(80) 88 1020 / 30.13
 10:55 Mostly Cloudy Showers S 10/0 (12/0) 26(79) 90 1020 / 30.12
 10:26 Mostly Cloudy Showers S 9/0 (10/0) 26(79) 92 1020 / 30.12
 10:06 Mostly Cloudy Showers S 10/0 (12/0) 27(80) 85 1020 / 30.12
 09:55 Mostly Cloudy Showers SSE 10/0 (12/0) 27(80) 85 1020 / 30.12
 08:55 Mostly Cloudy  S 9/0 (10/0) 26(79) 84 1020 / 30.12
 07:55 Mostly Cloudy Showers SSE 10/0 (12/0) 26(79) 84 1020 / 30.11
 07:37 Mostly Cloudy Showers S 10/0 (12/0) 26(78) 85 1020 / 30.11
 07:14 Mostly Cloudy Showers S 9/0 (10/0) 26(78) 84 1019 / 30.10
 06:55 Mostly Cloudy Showers SSE 8/0 (9/0) 26(78) 82 1019 / 30.10
 06:45 Mostly Cloudy Showers S 8/0 (9/0) 26(78) 83 1019 / 30.10
 05:55 Mostly Cloudy  SSE 9/0 (10/0) 26(78) 82 1019 / 30.09
 04:55 Mostly Cloudy  SSE 10/0 (12/0) 26(78) 82 1019 / 30.08
 03:55 Mostly Cloudy  S 9/0 (10/0) 25(78) 81 1018 / 30.07
 03:19 Mostly Cloudy  S 7/0 (8/0) 25(78) 81 1018 / 30.07
 02:55 Partly Cloudy  S 8/0 (9/0) 25(78) 81 1018 / 30.07
 02:44 Partly Cloudy  S 8/0 (9/0) 25(77) 80 1019 / 30.08
 01:55 Mostly Cloudy  S 8/0 (9/0) 26(78) 78 1019 / 30.09
 00:55 Overcast  S 7/0 (8/0) 26(78) 78 1019 / 30.10
 23:55 Mostly Cloudy  S 8/0 (9/0) 26(78) 76 1019 / 30.10
 22:55 Mostly Cloudy  S 8/0 (9/0) 26(78) 75 1019 / 30.10
 21:55 Mostly Cloudy  S 8/0 (9/0) 25(78) 75 1019 / 30.09
 20:55 Mostly Cloudy  S 8/0 (9/0) 25(78) 75 1018 / 30.07
 19:55 Mostly Cloudy  S 8/0 (9/0) 26(78) 73 1018 / 30.07
 18:55 Mostly Cloudy  S 8/0 (9/0) 26(78) 72 1018 / 30.07
 17:55 Mostly Cloudy  S 8/0 (9/0) 26(79) 70 1018 / 30.06
 16:55 Partly Cloudy  S 9/0 (10/0) 27(80) 68 1018 / 30.06
 15:55 Mostly Cloudy  S 9/0 (10/0) 26(80) 67 1018 / 30.07
 14:55 Mostly Cloudy  S 10/0 (12/0) 27(80) 66 1019 / 30.08
 13:55 Mostly Cloudy  SSW 11/0 (13/0) 27(80) 65 1019 / 30.09
 12:55 Mostly Cloudy  S 10/0 (12/0) 26(79) 64 1019 / 30.09
 11:55 Mostly Cloudy  SSW 6/0 (7/0) 27(80) 63 1019 / 30.08
 10:55 Mostly Cloudy  SSW 7/0 (8/0) 25(77) 63 1019 / 30.08
 09:55 Partly Cloudy  SSW 7/0 (8/0) 25(77) 63 1019 / 30.08
 08:55 Partly Cloudy  SW 6/0 (7/0) 25(76) 65 1018 / 30.07
 07:55 Few Clouds  SW 6/0 (7/0) 25(76) 65 1018 / 30.07
 06:55 Few Clouds  SW 6/0 (7/0) 23(74) 69 1018 / 30.06
 05:55 Partly Cloudy  WSW 7/0 (8/0) 24(74) 64 1017 / 30.04
 04:55 Few Clouds  SW 8/0 (9/0) 23(74) 63 1017 / 30.02
 03:55 Few Clouds  SW 7/0 (8/0) 23(74) 65 1017 / 30.02
 02:55 Partly Cloudy  SW 6/0 (7/0) 23(74) 68 1017 / 30.03
 01:55 Partly Cloudy  SW 6/0 (7/0) 23(74) 65 1018 / 30.05
 00:55 Mostly Cloudy  SW 8/0 (9/0) 24(75) 64 1018 / 30.05
 23:55 Mostly Cloudy  SW 7/0 (8/0) 24(76) 59 1018 / 30.07
 22:55 Mostly Cloudy  WNW 7/0 (8/0) 24(76) 62 1018 / 30.07
 21:55 Mostly Cloudy  W 6/0 (7/0) 24(76) 64 1018 / 30.06
 20:55 Mostly Cloudy  WNW 7/0 (8/0) 24(76) 66 1017 / 30.04
 19:55 Mostly Cloudy  W 8/0 (9/0) 25(77) 64 1017 / 30.04
 18:55 Mostly Cloudy  W 11/0 (13/0) 26(78) 63 1017 / 30.03
 17:55 Mostly Cloudy  W 11/0 (13/0) 26(78) 61 1017 / 30.03
 16:55 Mostly Cloudy  W 13/0 (15/0) 26(79) 64 1017 / 30.03
 15:55 Overcast  W 12/0 (14/0) 26(79) 61 1017 / 30.02
 14:55 Mostly Cloudy  W 13/0 (15/0) 26(79) 61 1017 / 30.03
 13:55 Mostly Cloudy  W 10/0 (12/0) 26(80) 59 1017 / 30.04
 12:55 Mostly Cloudy  W 7/0 (8/0) 27(80) 53 1017 / 30.04
 11:55 Partly Cloudy  WSW 7/0 (8/0) 26(79) 54 1018 / 30.05
 10:55 Mostly Cloudy  W 7/0 (8/0) 26(78) 62 1018 / 30.05
 09:55 Mostly Cloudy  W 8/0 (9/0) 25(78) 65 1017 / 30.04
 08:55 Mostly Cloudy Showers WNW 7/0 (8/0) 25(76) 67 1017 / 30.04
 08:08 Mostly Cloudy Showers NNW 5/0 (6/0) 24(75) 71 1017 / 30.03
 07:55 Mostly Cloudy Showers W 8/0 (9/0) 24(74) 73 1017 / 30.03
 07:29 Mostly Cloudy Showers W 6/0 (7/0) 24(76) 67 1017 / 30.02
 06:55 Mostly Cloudy Showers W 9/0 (10/0) 24(75) 68 1017 / 30.02
 06:44 Mostly Cloudy  WNW 10/0 (12/0) 24(75) 68 1017 / 30.02
 05:55 Mostly Cloudy Showers W 7/0 (8/0) 24(76) 62 1016 / 30.01
 04:55 Mostly Cloudy Showers W 7/0 (8/0) 24(75) 67 1016 / 29.99
 03:55 Partly Cloudy  W 7/0 (8/0) 24(74) 65 1016 / 29.99
 02:55 Few Clouds  WNW 6/0 (7/0) 24(75) 62 1016 / 30.00
 01:55 Few Clouds  WNW 4/0 (5/0) 24(74) 62 1016 / 30.00
 00:55 Few Clouds  NW 3/0 (3/0) 24(75) 58 1016 / 30.01
 23:55 Partly Cloudy  NNW 6/0 (7/0) 24(76) 56 1017 / 30.02
 22:55 Few Clouds  NNW 6/0 (7/0) 24(76) 53 1017 / 30.02
 21:55 Few Clouds  NNW 4/0 (5/0) 25(76) 55 1016 / 30.01
 20:55 Partly Cloudy  NNW 6/0 (7/0) 25(76) 56 1016 / 30.00
 19:55 Partly Cloudy  NNW 10/0 (12/0) 25(77) 58 1015 / 29.98
 18:55 Partly Cloudy  NNW 11/0 (13/0) 26(78) 56 1015 / 29.98
 17:55 Partly Cloudy  NW 11/0 (13/0) 26(79) 58 1015 / 29.97
 16:55 Few Clouds  NNW 11/0 (13/0) 27(80) 55 1015 / 29.97
 15:55 Few Clouds  NW 13/0 (15/0) 27(80) 52 1015 / 29.97
 14:55 Few Clouds  NW 12/0 (14/0) 27(80) 58 1015 / 29.97
 13:55 Partly Cloudy  NW 14/0 (16/0) 26(80) 62 1015 / 29.97
 12:55 Partly Cloudy  NNW 14/0 (16/0) 26(79) 69 1015 / 29.96
 11:55 Partly Cloudy  NW 13/0 (15/0) 25(77) 74 1015 / 29.96
 10:55 Mostly Cloudy  NNW 10/0 (12/0) 24(76) 78 1014 / 29.95
 10:25 Mostly Cloudy  NNW 9/0 (10/0) 24(75) 80 1014 / 29.95
 09:55 Overcast  NNW 11/0 (13/0) 24(75) 82 1014 / 29.94
 09:43 Overcast  NNW 11/0 (13/0) 24(75) 82 1014 / 29.95
 08:55 Overcast  NW 10/0 (12/0) 24(74) 83 1014 / 29.94
 07:55 Overcast Showers WNW 7/0 (8/0) 24(74) 86 1014 / 29.93
 07:08 Overcast Showers WNW 8/0 (9/0) 23(73) 86 1013 / 29.92
 06:55 Overcast Showers WNW 10/0 (12/0) 23(73) 89 1013 / 29.92
 06:17 Overcast Showers WNW 13/0 (15/0) 22(72) 88 1013 / 29.92
 06:02 Overcast Showers WSW 7/0 (8/0) 23(74) 85 1013 / 29.91
 05:55 Overcast Showers WSW 6/0 (7/0) 23(73) 84 1013 / 29.91
 05:16 Mostly Cloudy Showers W 9/0 (10/0) 22(72) 86 1013 / 29.91
Island AWOS